Time;durP1;ratioP1;P1;durP2;ratioP2;P2;SDS_P1;SDS_P2;PMS_P1;PMS_P2;Temp;Humidity;BMP_temperature;BMP_pressure;BME280_temperature;BME280_humidity;BME280_pressure;Samples;Min_cycle;Max_cycle;Signal;HPM_P1;HPM_P2
2022/12/13 00:02:11;;;;;;;33.47;16.92;;;-2.80;99.90;;;;;;5115587;27;20043;-60
2022/12/13 00:04:37;;;;;;;35.67;15.90;;;-2.80;99.90;;;;;;5138970;27;20405;-60
2022/12/13 00:07:02;;;;;;;36.67;16.52;;;-2.80;99.90;;;;;;5113814;27;20035;-60
2022/12/13 00:09:28;;;;;;;36.17;17.30;;;-2.80;99.90;;;;;;5028928;28;20359;-61
2022/12/13 00:11:53;;;;;;;38.80;17.92;;;-2.90;99.90;;;;;;4988517;28;20492;-60
2022/12/13 00:14:19;;;;;;;29.05;15.93;;;-2.80;99.90;;;;;;4917591;29;20027;-61
2022/12/13 00:19:40;;;;;;;31.60;16.17;;;-2.90;99.90;;;;;;5193903;27;20133;-61
2022/12/13 00:22:05;;;;;;;32.47;16.42;;;-2.90;99.90;;;;;;5178723;27;20472;-60
2022/12/13 00:24:31;;;;;;;36.83;17.83;;;-3.00;99.90;;;;;;5155306;27;20099;-60
2022/12/13 00:26:57;;;;;;;34.40;15.70;;;-2.90;99.90;;;;;;5145166;27;20115;-57
2022/12/13 00:29:22;;;;;;;33.00;16.63;;;-3.00;99.90;;;;;;5122570;27;20139;-60
2022/12/13 00:31:48;;;;;;;34.22;15.73;;;-3.00;99.90;;;;;;5071179;28;20036;-59
2022/12/13 00:34:13;;;;;;;34.45;16.65;;;-3.00;99.90;;;;;;5059996;28;20086;-60
2022/12/13 00:36:39;;;;;;;35.80;16.58;;;-3.00;99.90;;;;;;5011198;28;20072;-59
2022/12/13 00:39:05;;;;;;;35.65;17.65;;;-3.00;99.90;;;;;;5002681;28;20174;-60
2022/12/13 00:41:33;;;;;;;38.03;18.25;;;-3.00;99.90;;;;;;4992291;28;20034;-58
2022/12/13 00:46:37;;;;;;;38.08;18.75;;;-3.00;99.90;;;;;;5185896;27;20122;-58
2022/12/13 00:49:03;;;;;;;40.10;18.02;;;-3.10;99.90;;;;;;5138913;27;20039;-61
2022/12/13 00:51:30;;;;;;;37.45;17.35;;;-3.10;99.90;;;;;;5131262;27;20035;-61
2022/12/13 00:53:56;;;;;;;34.05;16.67;;;-3.10;99.90;;;;;;5120052;27;20043;-61
2022/12/13 00:56:25;;;;;;;38.75;17.15;;;-3.10;99.90;;;;;;5104980;28;20039;-61
2022/12/13 00:58:51;;;;;;;34.38;17.40;;;-3.10;99.90;;;;;;5063602;28;20448;-61
2022/12/13 01:01:19;;;;;;;36.38;17.45;;;-3.20;99.90;;;;;;5088594;28;20389;-60
2022/12/13 01:03:45;;;;;;;33.55;17.08;;;-3.20;99.90;;;;;;5042914;28;20056;-61
2022/12/13 01:06:20;;;;;;;38.30;17.52;;;-3.20;99.90;;;;;;4994209;28;20047;-62
2022/12/13 01:08:47;;;;;;;35.08;17.30;;;-3.20;99.90;;;;;;4932694;28;20047;-60
2022/12/13 01:13:49;;;;;;;33.58;16.77;;;-3.20;99.90;;;;;;5178911;27;20129;-58
2022/12/13 01:16:15;;;;;;;37.65;16.88;;;-3.20;99.90;;;;;;5151927;27;20384;-58
2022/12/13 01:18:41;;;;;;;35.47;16.67;;;-3.20;99.90;;;;;;5116210;27;20043;-59
2022/12/13 01:21:15;;;;;;;40.78;18.08;;;-3.30;99.90;;;;;;5138759;27;20035;-61
2022/12/13 01:23:41;;;;;;;37.85;18.08;;;-3.30;99.90;;;;;;5117915;27;20054;-60
2022/12/13 01:26:10;;;;;;;41.67;18.15;;;-3.40;99.90;;;;;;5113765;27;20035;-61
2022/12/13 01:28:36;;;;;;;40.05;18.27;;;-3.40;99.90;;;;;;5031625;28;20041;-61
2022/12/13 01:31:06;;;;;;;43.30;18.35;;;-3.40;99.90;;;;;;4922957;28;20095;-60
2022/12/13 01:33:32;;;;;;;40.53;17.70;;;-3.30;99.90;;;;;;4941725;28;20453;-60
2022/12/13 01:36:03;;;;;;;40.60;18.25;;;-3.40;99.90;;;;;;4916431;28;20749;-57
2022/12/13 01:38:41;;;;;;;42.50;18.13;;;-3.40;99.90;;;;;;5192651;27;20132;-61
2022/12/13 01:41:07;;;;;;;35.58;16.63;;;-3.40;99.90;;;;;;5169204;27;20122;-60
2022/12/13 01:43:35;;;;;;;36.40;18.02;;;-3.30;99.90;;;;;;5145424;27;20303;-61
2022/12/13 01:46:01;;;;;;;37.22;17.90;;;-3.40;99.90;;;;;;5153085;27;20043;-62
2022/12/13 01:48:30;;;;;;;36.40;16.83;;;-3.40;99.90;;;;;;5133478;27;20044;-61
2022/12/13 01:51:00;;;;;;;36.67;18.00;;;-3.40;99.90;;;;;;5075599;28;20102;-61
2022/12/13 01:53:29;;;;;;;35.30;17.38;;;-3.40;99.90;;;;;;5038105;28;20514;-61
2022/12/13 01:56:03;;;;;;;33.95;16.90;;;-3.40;99.90;;;;;;5011741;28;20085;-57
2022/12/13 01:58:29;;;;;;;35.40;16.88;;;-3.40;99.90;;;;;;4957063;28;20482;-60
2022/12/13 02:00:57;;;;;;;35.22;16.75;;;-3.40;99.90;;;;;;4875960;29;20061;-60
2022/12/13 02:06:06;;;;;;;36.80;18.60;;;-3.40;99.90;;;;;;5189859;27;20132;-57
2022/12/13 02:08:33;;;;;;;33.42;17.33;;;-3.40;99.90;;;;;;5133655;27;20042;-60
2022/12/13 02:11:00;;;;;;;35.45;16.88;;;-3.40;99.90;;;;;;5161309;27;20454;-58
2022/12/13 02:13:26;;;;;;;36.53;16.75;;;-3.40;99.90;;;;;;5164421;27;20047;-61
2022/12/13 02:16:29;;;;;;;35.42;17.02;;;-3.40;99.90;;;;;;5145207;27;20096;-61
2022/12/13 02:19:11;;;;;;;;;;;-3.40;99.90;;;;;;5061657;28;20412;-58
2022/12/13 02:22:02;;;;;;;34.90;16.60;;;-3.50;99.90;;;;;;4959009;28;20291;-61
2022/12/13 02:24:43;;;;;;;36.05;16.15;;;-3.50;99.90;;;;;;4893110;29;20059;-60
2022/12/13 02:27:11;;;;;;;36.05;16.88;;;-3.50;99.90;;;;;;4850334;29;20038;-60
2022/12/13 02:30:00;;;;;;;33.13;16.45;;;-3.50;99.90;;;;;;5173040;27;20606;-59
2022/12/13 02:32:44;;;;;;;33.25;16.52;;;-3.50;99.90;;;;;;5160320;27;20095;-57
2022/12/13 02:35:43;;;;;;;33.25;16.38;;;-3.50;99.90;;;;;;5143049;27;20039;-59
2022/12/13 02:38:49;;;;;;;33.28;16.10;;;-3.50;99.90;;;;;;5115326;28;20483;-61
2022/12/13 02:41:37;;;;;;;35.00;16.70;;;-3.50;99.90;;;;;;4970677;28;20043;-61
2022/12/13 02:44:18;;;;;;;33.05;16.35;;;-3.50;99.90;;;;;;4922363;28;20072;-61
2022/12/13 02:46:58;;;;;;;33.30;16.50;;;-3.50;99.90;;;;;;4843064;29;20050;-62
2022/12/13 02:49:28;;;;;;;34.03;16.20;;;-3.50;99.90;;;;;;4864355;29;20046;-61
2022/12/13 02:51:56;;;;;;;33.65;16.40;;;-3.40;99.90;;;;;;4811269;29;20042;-61
2022/12/13 02:54:33;;;;;;;33.75;17.20;;;-3.40;99.90;;;;;;5171676;27;20137;-61
2022/12/13 02:56:59;;;;;;;35.35;17.33;;;-3.40;99.90;;;;;;5144835;27;20043;-62
2022/12/13 02:59:33;;;;;;;33.15;15.95;;;-3.40;99.90;;;;;;5169789;27;20042;-60
2022/12/13 03:02:15;;;;;;;33.60;16.42;;;-3.40;99.90;;;;;;5143636;27;20043;-61
2022/12/13 03:08:35;;;;;;;39.40;16.45;;;-3.40;99.90;;;;;;5007316;28;20382;-59
2022/12/13 03:11:17;;;;;;;32.00;15.93;;;-3.40;99.90;;;;;;4969755;28;20055;-60
2022/12/13 03:13:46;;;;;;;29.85;15.48;;;-3.40;99.90;;;;;;4914514;29;20060;-59
2022/12/13 03:16:14;;;;;;;31.33;15.50;;;-3.40;99.90;;;;;;4855374;29;20468;-61
2022/12/13 03:21:17;;;;;;;30.20;14.60;;;-3.40;99.90;;;;;;5194898;27;20494;-61
2022/12/13 03:23:44;;;;;;;36.55;16.50;;;-3.50;99.90;;;;;;5161044;27;20039;-61
2022/12/13 03:26:17;;;;;;;34.70;16.75;;;-3.50;99.90;;;;;;5174884;27;20037;-62
2022/12/13 03:28:43;;;;;;;37.58;16.45;;;-3.50;99.90;;;;;;5175811;27;20429;-58
2022/12/13 03:31:09;;;;;;;31.42;15.35;;;-3.50;99.90;;;;;;5147074;27;20047;-59
2022/12/13 03:33:35;;;;;;;31.27;15.07;;;-3.50;99.90;;;;;;5136455;27;20101;-60
2022/12/13 03:36:01;;;;;;;32.75;15.48;;;-3.50;99.90;;;;;;5109224;28;20035;-61
2022/12/13 03:38:28;;;;;;;31.38;15.82;;;-3.50;99.90;;;;;;5092674;28;20044;-61
2022/12/13 03:41:00;;;;;;;32.13;15.20;;;-3.50;99.90;;;;;;5054767;28;20041;-61
2022/12/13 03:43:26;;;;;;;;;;;-3.50;99.90;;;;;;4980602;28;20051;-58
2022/12/13 03:48:29;;;;;;;32.60;15.23;;;-3.50;99.90;;;;;;5195559;27;20132;-61
2022/12/13 03:50:55;;;;;;;32.75;15.38;;;-3.60;99.90;;;;;;5175174;27;20034;-60
2022/12/13 03:53:22;;;;;;;31.75;15.43;;;-3.60;99.90;;;;;;5180447;27;20081;-60
2022/12/13 03:55:48;;;;;;;30.50;15.13;;;-3.60;99.90;;;;;;5183643;27;20111;-60
2022/12/13 03:58:13;;;;;;;31.20;14.52;;;-3.80;99.90;;;;;;5087162;28;20432;-60
2022/12/13 04:00:39;;;;;;;30.35;15.75;;;-3.60;99.90;;;;;;5118579;27;20055;-60
2022/12/13 04:03:05;;;;;;;31.58;15.18;;;-3.70;99.90;;;;;;5115655;27;20032;-60
2022/12/13 04:05:30;;;;;;;36.90;15.65;;;-3.70;99.90;;;;;;5091005;28;20477;-59
2022/12/13 04:07:56;;;;;;;30.73;14.77;;;-3.70;99.90;;;;;;5057602;28;20044;-57
2022/12/13 04:10:22;;;;;;;30.88;14.65;;;-3.80;99.90;;;;;;4996674;28;20510;-57
2022/12/13 04:15:26;;;;;;;30.00;15.55;;;-3.80;99.90;;;;;;5197832;27;20486;-62
2022/12/13 04:17:52;;;;;;;32.67;15.57;;;-3.80;99.90;;;;;;5166336;27;20042;-60
2022/12/13 04:20:17;;;;;;;33.78;15.52;;;-3.80;99.90;;;;;;5154805;27;20488;-59
2022/12/13 04:22:43;;;;;;;33.00;15.10;;;-3.80;99.90;;;;;;5160135;27;20046;-60
2022/12/13 04:25:08;;;;;;;33.22;15.77;;;-3.90;99.90;;;;;;5153280;27;20126;-61
2022/12/13 04:27:36;;;;;;;33.67;15.70;;;-3.90;99.90;;;;;;5136793;27;20039;-60
2022/12/13 04:30:03;;;;;;;29.25;15.18;;;-3.90;99.90;;;;;;5114246;28;20046;-61
2022/12/13 04:32:29;;;;;;;29.75;14.70;;;-3.90;99.90;;;;;;5076742;28;20451;-61
2022/12/13 04:34:55;;;;;;;31.08;15.27;;;-4.00;99.90;;;;;;4966372;28;20128;-60
2022/12/13 04:37:20;;;;;;;31.75;15.02;;;-4.00;99.90;;;;;;4812737;29;20047;-61
2022/12/13 04:42:22;;;;;;;34.45;16.20;;;-4.00;99.90;;;;;;5194613;27;20136;-61
2022/12/13 04:44:48;;;;;;;34.95;15.50;;;-4.00;99.90;;;;;;5170281;27;20051;-61
2022/12/13 04:47:15;;;;;;;33.28;15.20;;;-4.00;99.90;;;;;;5176580;27;20037;-59
2022/12/13 04:49:40;;;;;;;33.50;16.05;;;-4.00;99.90;;;;;;5162807;27;20053;-60
2022/12/13 04:52:06;;;;;;;32.90;16.13;;;-4.00;99.90;;;;;;5153132;27;20031;-61
2022/12/13 04:54:32;;;;;;;39.10;15.57;;;-4.00;99.90;;;;;;5137512;27;20574;-61
2022/12/13 04:56:58;;;;;;;28.95;14.73;;;-4.00;99.90;;;;;;5108725;28;20105;-63
2022/12/13 04:59:23;;;;;;;29.80;14.38;;;-4.00;99.90;;;;;;5136115;27;20035;-61
2022/12/13 05:01:49;;;;;;;31.70;15.02;;;-4.00;99.90;;;;;;5123281;27;20129;-61
2022/12/13 05:04:15;;;;;;;32.53;16.60;;;-4.10;99.90;;;;;;5093119;27;20033;-61
2022/12/13 05:09:38;;;;;;;35.03;16.70;;;-4.10;99.90;;;;;;5194520;27;20132;-61
2022/12/13 05:12:04;;;;;;;36.85;17.15;;;-4.10;99.90;;;;;;5165990;27;20416;-61
2022/12/13 05:14:30;;;;;;;37.72;18.50;;;-4.10;99.90;;;;;;5118544;27;20496;-61
2022/12/13 05:16:56;;;;;;;36.15;18.00;;;-3.20;99.90;;;;;;5127551;27;20043;-61
2022/12/13 05:19:22;;;;;;;37.67;17.85;;;-4.10;99.90;;;;;;5087985;28;20036;-61
2022/12/13 05:21:48;;;;;;;35.47;16.92;;;-4.10;99.90;;;;;;5014242;28;20499;-61
2022/12/13 05:24:14;;;;;;;35.38;16.48;;;-4.10;99.90;;;;;;5009756;28;20031;-61
2022/12/13 05:26:40;;;;;;;32.97;16.00;;;-4.10;99.90;;;;;;4972074;28;20051;-61
2022/12/13 05:29:05;;;;;;;35.13;16.95;;;-4.10;99.90;;;;;;4943256;28;20052;-61
2022/12/13 05:34:07;;;;;;;38.90;18.45;;;-4.20;99.90;;;;;;5143166;27;20134;-61
2022/12/13 05:36:33;;;;;;;34.90;17.13;;;-4.10;99.90;;;;;;5141514;27;20376;-60
2022/12/13 05:38:59;;;;;;;32.65;16.30;;;-4.10;99.90;;;;;;5136302;27;20162;-61
2022/12/13 05:41:28;;;;;;;37.85;17.95;;;-4.10;99.90;;;;;;5116920;27;20080;-61
2022/12/13 05:43:53;;;;;;;34.90;17.15;;;-4.10;99.90;;;;;;5051302;28;20056;-60
2022/12/13 05:46:19;;;;;;;43.80;17.58;;;-4.10;99.90;;;;;;5011262;28;20042;-61
2022/12/13 05:48:45;;;;;;;38.50;17.23;;;-4.10;99.90;;;;;;4957732;28;20046;-61
2022/12/13 05:51:11;;;;;;;38.42;18.08;;;-4.10;99.90;;;;;;4881343;29;20122;-61
2022/12/13 05:53:40;;;;;;;42.47;17.42;;;-4.10;99.90;;;;;;4757727;29;20115;-61
2022/12/13 05:56:06;;;;;;;35.83;16.45;;;-4.10;99.90;;;;;;4689924;30;20039;-61
2022/12/13 06:01:12;;;;;;;43.15;18.02;;;-4.10;99.90;;;;;;5176172;27;20137;-61
2022/12/13 06:03:38;;;;;;;37.35;17.25;;;-4.10;99.90;;;;;;5120362;27;20055;-61
2022/12/13 06:06:05;;;;;;;36.35;17.17;;;-4.10;99.90;;;;;;5133671;27;20047;-61
2022/12/13 06:08:31;;;;;;;40.35;17.67;;;-4.10;99.90;;;;;;5105828;27;20048;-61
2022/12/13 06:10:59;;;;;;;41.20;18.73;;;-4.10;99.90;;;;;;5076781;28;20039;-61
2022/12/13 06:13:24;;;;;;;41.08;18.13;;;-4.20;99.90;;;;;;4991368;28;20143;-60
2022/12/13 06:15:50;;;;;;;34.58;18.23;;;-4.10;99.90;;;;;;4947045;28;20078;-61
2022/12/13 06:18:16;;;;;;;41.90;19.13;;;-4.20;99.90;;;;;;4962388;28;20050;-61
2022/12/13 06:20:42;;;;;;;41.80;18.98;;;-4.20;99.90;;;;;;4935359;28;20127;-61
2022/12/13 06:23:08;;;;;;;39.55;18.83;;;-4.20;99.90;;;;;;4919114;28;20031;-61
2022/12/13 06:25:41;;;;;;;42.88;18.48;;;-4.10;99.90;;;;;;5172086;27;20124;-61
2022/12/13 06:28:07;;;;;;;38.35;19.60;;;-4.10;99.90;;;;;;5129353;27;20047;-61
2022/12/13 06:30:33;;;;;;;38.08;18.15;;;-4.10;99.90;;;;;;5159552;27;20450;-60
2022/12/13 06:32:58;;;;;;;40.58;18.60;;;-4.10;99.90;;;;;;5150582;27;20135;-61
2022/12/13 06:35:24;;;;;;;40.13;18.45;;;-4.10;99.90;;;;;;5120184;27;20481;-61
2022/12/13 06:37:53;;;;;;;39.38;18.08;;;-4.10;99.90;;;;;;5088706;28;20056;-62
2022/12/13 06:40:19;;;;;;;34.88;17.95;;;-4.20;99.90;;;;;;5067350;28;20036;-60
2022/12/13 06:42:44;;;;;;;38.67;18.42;;;-4.20;99.90;;;;;;5088896;28;20048;-60
2022/12/13 06:45:10;;;;;;;39.85;18.58;;;-4.20;99.90;;;;;;5089221;28;20080;-60
2022/12/13 06:47:36;;;;;;;39.92;17.88;;;-4.20;99.90;;;;;;5020202;28;20549;-60
2022/12/13 06:50:13;;;;;;;42.83;18.33;;;-4.20;99.90;;;;;;5198029;27;20132;-60
2022/12/13 06:52:39;;;;;;;42.13;18.13;;;-4.20;99.90;;;;;;5161495;27;20121;-61
2022/12/13 06:55:05;;;;;;;43.90;18.33;;;-4.20;99.90;;;;;;5154647;27;20122;-59
2022/12/13 06:57:32;;;;;;;39.42;17.35;;;-4.20;99.90;;;;;;5147999;27;20071;-60
2022/12/13 06:59:59;;;;;;;41.38;17.42;;;-4.20;99.90;;;;;;5046644;28;20045;-60
2022/12/13 07:02:24;;;;;;;35.08;17.92;;;-5.60;99.90;;;;;;5032993;28;20059;-60
2022/12/13 07:04:50;;;;;;;47.45;19.27;;;-4.20;99.90;;;;;;5050577;28;20538;-60
2022/12/13 07:07:15;;;;;;;37.65;17.35;;;-4.20;99.90;;;;;;5004340;28;20045;-61
2022/12/13 07:09:41;;;;;;;38.60;17.27;;;-4.20;99.90;;;;;;4931513;28;20048;-61
2022/12/13 07:12:07;;;;;;;38.25;17.50;;;-4.20;99.90;;;;;;4878980;29;20035;-60
2022/12/13 07:14:44;;;;;;;38.58;17.58;;;-4.20;99.90;;;;;;5194723;27;20506;-60
2022/12/13 07:17:09;;;;;;;41.53;17.85;;;-4.20;99.90;;;;;;5166737;27;20042;-60
2022/12/13 07:19:35;;;;;;;36.92;17.50;;;-4.20;99.90;;;;;;5158889;27;20038;-60
2022/12/13 07:22:01;;;;;;;41.40;18.10;;;-4.20;99.90;;;;;;5155035;27;20122;-61
2022/12/13 07:24:27;;;;;;;37.38;18.83;;;-4.20;99.90;;;;;;5133662;27;20050;-60
2022/12/13 07:26:52;;;;;;;38.22;18.23;;;-4.20;99.90;;;;;;5139520;27;20671;-60
2022/12/13 07:29:18;;;;;;;42.08;18.52;;;-4.20;99.90;;;;;;5135918;27;20055;-67
2022/12/13 07:31:43;;;;;;;47.63;20.25;;;-4.20;99.90;;;;;;5106547;28;20093;-60
2022/12/13 07:34:09;;;;;;;46.15;19.83;;;-4.20;99.90;;;;;;5088453;28;20131;-60
2022/12/13 07:36:35;;;;;;;48.00;21.65;;;-4.20;99.90;;;;;;5029188;28;20036;-61
2022/12/13 07:39:11;;;;;;;47.60;21.63;;;-4.20;99.90;;;;;;5198158;27;20120;-61
2022/12/13 07:41:37;;;;;;;44.92;20.23;;;-4.20;99.90;;;;;;5163484;27;20474;-60
2022/12/13 07:44:03;;;;;;;47.10;19.88;;;-4.20;99.90;;;;;;5145362;27;20042;-60
2022/12/13 07:46:29;;;;;;;50.17;21.02;;;-4.20;99.90;;;;;;5140656;27;20039;-61
2022/12/13 07:48:55;;;;;;;45.40;21.35;;;-4.10;99.90;;;;;;5128254;27;20046;-61
2022/12/13 07:51:20;;;;;;;53.17;22.85;;;-4.10;99.90;;;;;;5100521;28;20436;-60
2022/12/13 07:53:46;;;;;;;47.47;20.92;;;-4.10;99.90;;;;;;5099059;28;20093;-64
2022/12/13 07:56:11;;;;;;;47.97;20.50;;;-4.10;99.90;;;;;;5100160;28;20087;-60
2022/12/13 07:58:37;;;;;;;50.45;22.58;;;-4.10;99.90;;;;;;5074972;28;20052;-61
2022/12/13 08:01:06;;;;;;;50.78;21.80;;;-4.10;99.90;;;;;;5015791;28;21576;-60
2022/12/13 08:03:47;;;;;;;52.35;21.67;;;-4.10;99.90;;;;;;5172436;27;20129;-60
2022/12/13 08:06:13;;;;;;;45.90;22.17;;;-4.10;99.90;;;;;;5117550;27;20045;-61
2022/12/13 08:08:39;;;;;;;50.80;21.92;;;-4.10;99.90;;;;;;5139161;27;20035;-61
2022/12/13 08:11:07;;;;;;;53.25;23.23;;;-4.10;99.90;;;;;;5146953;27;20126;-62
2022/12/13 08:13:33;;;;;;;47.80;22.13;;;-4.10;99.90;;;;;;5152420;27;20045;-61
2022/12/13 08:16:00;;;;;;;54.25;22.15;;;-4.10;99.90;;;;;;5081671;28;20387;-61
2022/12/13 08:18:27;;;;;;;50.50;22.38;;;-4.10;99.90;;;;;;5098176;28;20047;-60
2022/12/13 08:21:00;;;;;;;49.08;22.75;;;-4.10;99.90;;;;;;5081494;28;20094;-61
2022/12/13 08:23:28;;;;;;;54.67;23.52;;;-4.10;99.90;;;;;;5054388;28;20505;-61
2022/12/13 08:25:54;;;;;;;50.60;22.67;;;-4.10;99.90;;;;;;4992766;28;20063;-61
2022/12/13 08:28:32;;;;;;;49.85;22.35;;;-4.10;99.90;;;;;;5195374;27;20474;-61
2022/12/13 08:31:13;;;;;;;51.75;21.48;;;-4.10;99.90;;;;;;5170965;27;20050;-60
2022/12/13 08:33:39;;;;;;;51.75;22.25;;;-4.10;99.90;;;;;;5135376;27;20061;-60
2022/12/13 08:36:09;;;;;;;50.83;22.00;;;-4.10;99.90;;;;;;5149880;27;20047;-66
2022/12/13 08:38:36;;;;;;;48.72;22.02;;;-4.10;99.90;;;;;;5113656;27;20048;-63
2022/12/13 08:41:02;;;;;;;46.08;21.23;;;-4.10;99.90;;;;;;5108966;28;20120;-61
2022/12/13 08:43:28;;;;;;;57.28;24.85;;;-4.10;99.90;;;;;;5073840;28;20190;-61
2022/12/13 08:45:54;;;;;;;51.58;23.02;;;-4.10;99.90;;;;;;5075516;28;20075;-60
2022/12/13 08:48:19;;;;;;;49.63;22.15;;;-4.00;99.90;;;;;;5043324;28;20400;-61
2022/12/13 08:50:45;;;;;;;51.75;22.75;;;-4.00;99.90;;;;;;4794522;29;20044;-61
2022/12/13 08:53:22;;;;;;;51.65;23.70;;;-4.00;99.90;;;;;;5194047;27;20136;-62
2022/12/13 08:55:48;;;;;;;53.08;23.92;;;-4.00;99.90;;;;;;5185441;27;20050;-60
2022/12/13 08:58:13;;;;;;;50.22;23.02;;;-4.00;99.90;;;;;;5178395;27;20527;-61
2022/12/13 09:00:41;;;;;;;55.92;23.52;;;-4.00;99.90;;;;;;5185204;27;20038;-60
2022/12/13 09:03:06;;;;;;;52.63;22.98;;;-4.00;99.90;;;;;;5164352;27;20112;-61
2022/12/13 09:05:32;;;;;;;54.90;24.20;;;-4.00;99.90;;;;;;5141936;27;20473;-61
2022/12/13 09:07:58;;;;;;;52.63;24.42;;;-3.90;99.90;;;;;;5107342;27;20458;-61
2022/12/13 09:10:24;;;;;;;52.45;24.33;;;-3.90;99.90;;;;;;5037242;28;20069;-61
2022/12/13 09:12:50;;;;;;;62.70;26.55;;;-3.90;99.90;;;;;;4998032;28;20070;-60
2022/12/13 09:15:16;;;;;;;55.88;25.85;;;-3.80;99.90;;;;;;4979092;28;20127;-60
2022/12/13 09:17:54;;;;;;;60.63;26.38;;;-3.80;99.90;;;;;;5190935;27;20133;-60
2022/12/13 09:20:20;;;;;;;58.78;26.38;;;-3.70;99.90;;;;;;5159118;27;20047;-61
2022/12/13 09:22:45;;;;;;;55.47;24.58;;;-3.70;99.90;;;;;;5160964;27;20067;-60
2022/12/13 09:25:11;;;;;;;59.63;27.00;;;-3.60;99.90;;;;;;5122297;27;20326;-60
2022/12/13 09:27:37;;;;;;;56.03;24.20;;;-3.60;99.90;;;;;;5095074;28;20534;-60
2022/12/13 09:30:04;;;;;;;60.03;26.55;;;-3.60;99.90;;;;;;5090589;28;20067;-61
2022/12/13 09:32:31;;;;;;;56.80;25.90;;;-3.50;99.90;;;;;;5090841;28;20040;-60
2022/12/13 09:34:56;;;;;;;55.33;25.80;;;-3.50;99.90;;;;;;5073909;28;20135;-61
2022/12/13 09:37:22;;;;;;;61.03;25.95;;;-3.40;99.90;;;;;;5074375;28;20135;-61
2022/12/13 09:39:48;;;;;;;58.33;25.95;;;-3.40;99.90;;;;;;5024039;28;20133;-61
2022/12/13 09:42:28;;;;;;;50.22;25.55;;;-3.30;99.90;;;;;;5194983;27;20120;-61
2022/12/13 09:45:00;;;;;;;52.88;24.48;;;-3.30;99.90;;;;;;5156777;27;20047;-60
2022/12/13 09:47:36;;;;;;;58.40;26.60;;;-3.30;99.90;;;;;;5156344;27;20095;-61
2022/12/13 09:50:10;;;;;;;57.20;26.13;;;-3.20;99.90;;;;;;5124804;27;20083;-61
2022/12/13 09:52:39;;;;;;;58.15;25.90;;;-3.20;99.90;;;;;;5128579;27;20421;-61
2022/12/13 09:55:28;;;;;;;55.38;25.55;;;-3.20;99.90;;;;;;5128318;27;20047;-61
2022/12/13 09:57:54;;;;;;;57.67;25.95;;;-3.10;99.90;;;;;;5088469;28;20043;-61
2022/12/13 10:00:27;;;;;;;57.83;26.02;;;-3.10;99.90;;;;;;5093472;28;20124;-62
2022/12/13 10:02:56;;;;;;;55.60;27.10;;;-3.00;99.90;;;;;;5077670;28;20390;-60
2022/12/13 10:05:37;;;;;;;62.30;27.52;;;-3.00;99.90;;;;;;5004044;28;20093;-61
2022/12/13 10:08:21;;;;;;;56.38;24.52;;;-2.90;99.90;;;;;;5197832;27;20597;-61
2022/12/13 10:10:49;;;;;;;55.15;26.17;;;-2.90;99.90;;;;;;5157089;27;20047;-61
2022/12/13 10:13:42;;;;;;;58.30;24.50;;;-2.80;99.90;;;;;;5151771;27;20388;-61
2022/12/13 10:16:14;;;;;;;54.92;26.02;;;-2.80;99.90;;;;;;5130815;27;20139;-62
2022/12/13 10:18:43;;;;;;;63.17;27.02;;;-2.80;99.90;;;;;;5087210;28;20044;-61
2022/12/13 10:21:37;;;;;;;59.15;26.98;;;-2.90;99.90;;;;;;5073834;28;20113;-62
2022/12/13 10:24:29;;;;;;;54.85;24.08;;;-2.70;99.90;;;;;;5009984;28;20055;-61
2022/12/13 10:27:13;;;;;;;51.83;24.90;;;-2.70;99.90;;;;;;4908861;29;20135;-61
2022/12/13 10:33:01;;;;;;;57.38;26.05;;;-2.60;99.90;;;;;;5189660;27;20136;-61
2022/12/13 10:35:39;;;;;;;57.17;28.05;;;-2.60;99.90;;;;;;5164282;27;20130;-61
2022/12/13 10:38:09;;;;;;;58.97;26.38;;;-2.50;99.90;;;;;;5116074;27;20051;-61
2022/12/13 10:40:35;;;;;;;63.58;27.75;;;-2.50;99.90;;;;;;5115496;27;20077;-61
2022/12/13 10:43:09;;;;;;;62.33;28.35;;;-2.40;99.90;;;;;;5148062;27;20035;-61
2022/12/13 10:45:35;;;;;;;64.22;28.13;;;-2.30;99.90;;;;;;5113358;27;20546;-61
2022/12/13 10:48:03;;;;;;;61.75;27.83;;;-2.30;99.90;;;;;;5112477;27;20039;-61
2022/12/13 10:50:29;;;;;;;66.53;27.65;;;-2.30;99.90;;;;;;5075799;28;20045;-61
2022/12/13 10:53:18;;;;;;;64.72;28.75;;;-2.20;99.90;;;;;;5176331;27;20655;-62
2022/12/13 10:55:44;;;;;;;64.20;29.38;;;-2.20;99.90;;;;;;5120534;27;20393;-61
2022/12/13 10:58:18;;;;;;;64.22;29.23;;;-2.20;99.90;;;;;;5127397;27;20047;-61
2022/12/13 11:00:46;;;;;;;67.20;31.13;;;-2.10;99.90;;;;;;5092640;28;20040;-61
2022/12/13 11:03:32;;;;;;;59.25;28.02;;;-2.00;99.90;;;;;;5054783;28;20522;-61
2022/12/13 11:06:02;;;;;;;63.15;29.23;;;-1.90;99.90;;;;;;5035997;28;20037;-62
2022/12/13 11:08:29;;;;;;;61.97;29.73;;;-1.90;99.90;;;;;;5000043;28;20382;-62
2022/12/13 11:10:58;;;;;;;61.55;29.20;;;-1.90;99.90;;;;;;4992523;28;20628;-61
2022/12/13 11:13:51;;;;;;;64.63;29.10;;;-1.80;99.90;;;;;;4990424;28;20461;-60
2022/12/13 11:16:38;;;;;;;63.90;28.58;;;-1.80;99.90;;;;;;4919116;28;20048;-61
2022/12/13 11:19:18;;;;;;;59.28;27.52;;;-1.70;99.90;;;;;;5182674;27;20145;-61
2022/12/13 11:21:48;;;;;;;61.03;29.10;;;-1.70;99.90;;;;;;5168759;27;20501;-61
2022/12/13 11:24:24;;;;;;;60.70;27.65;;;-1.60;99.90;;;;;;5164743;27;20034;-61
2022/12/13 11:27:18;;;;;;;62.15;27.83;;;-1.60;99.90;;;;;;5165986;27;20039;-61
2022/12/13 11:29:55;;;;;;;58.90;28.48;;;-1.60;99.90;;;;;;5074338;28;20052;-61
2022/12/13 11:32:40;;;;;;;57.60;26.30;;;-1.50;99.90;;;;;;5028916;28;20496;-61
2022/12/13 11:35:11;;;;;;;57.03;27.27;;;-1.50;99.90;;;;;;4986827;28;20047;-60
2022/12/13 11:38:08;;;;;;;59.25;26.45;;;-1.50;99.90;;;;;;4931946;28;20044;-61
2022/12/13 11:41:02;;;;;;;54.17;28.42;;;-1.50;99.90;;;;;;4885020;29;20079;-60
2022/12/13 11:43:49;;;;;;;68.45;37.78;;;-1.40;99.90;;;;;;5180350;27;20393;-61
2022/12/13 11:46:37;;;;;;;58.90;29.55;;;-1.30;99.90;;;;;;5153543;27;20391;-62
2022/12/13 11:49:16;;;;;;;55.58;27.67;;;-1.30;99.90;;;;;;5125994;27;20043;-61
2022/12/13 11:52:16;;;;;;;63.58;28.92;;;-1.20;99.90;;;;;;5123824;27;20050;-60
2022/12/13 11:55:03;;;;;;;60.83;28.38;;;-1.10;99.90;;;;;;5010246;28;20046;-61
2022/12/13 11:57:44;;;;;;;55.97;27.75;;;-0.90;99.90;;;;;;4987289;28;20401;-67
2022/12/13 12:00:28;;;;;;;63.92;28.98;;;-0.70;99.90;;;;;;4943098;28;20055;-61
2022/12/13 12:03:16;;;;;;;57.50;27.13;;;-0.50;99.90;;;;;;4876686;29;20585;-60
2022/12/13 12:06:01;;;;;;;52.38;25.50;;;-0.30;99.90;;;;;;4720158;30;20525;-61
2022/12/13 12:08:54;;;;;;;59.30;27.67;;;-0.10;99.90;;;;;;5192878;27;19918;-60
2022/12/13 12:11:39;;;;;;;54.58;26.90;;;0.10;99.90;;;;;;5145214;27;20042;-60
2022/12/13 12:14:23;;;;;;;58.10;26.30;;;0.30;99.90;;;;;;5095006;27;20409;-60
2022/12/13 12:16:54;;;;;;;51.03;25.23;;;0.40;99.90;;;;;;5112934;27;20058;-62
2022/12/13 12:19:22;;;;;;;55.55;27.83;;;0.50;99.90;;;;;;5113049;28;20386;-66
2022/12/13 12:22:07;;;;;;;53.95;26.95;;;0.70;99.90;;;;;;5063196;28;20110;-61
2022/12/13 12:24:32;;;;;;;54.60;27.90;;;1.00;99.90;;;;;;5020066;28;20045;-61
2022/12/13 12:27:27;;;;;;;51.28;26.50;;;1.20;99.90;;;;;;4981982;28;20070;-63
2022/12/13 12:30:17;;;;;;;56.22;26.73;;;1.40;99.90;;;;;;4854104;29;20106;-61
2022/12/13 12:35:59;;;;;;;49.17;26.67;;;1.80;99.90;;;;;;5178288;27;20487;-61
2022/12/13 12:38:43;;;;;;;49.20;25.65;;;1.90;99.90;;;;;;5111902;27;20520;-61
2022/12/13 12:41:36;;;;;;;51.70;27.00;;;1.90;99.90;;;;;;5113620;27;20160;-61
2022/12/13 12:44:04;;;;;;;55.42;26.52;;;2.10;99.90;;;;;;5090423;28;20093;-61
2022/12/13 12:46:51;;;;;;;59.05;27.83;;;2.20;99.90;;;;;;5075616;28;20029;-61
2022/12/13 12:49:39;;;;;;;50.80;26.70;;;2.40;99.90;;;;;;5039289;28;20045;-62
2022/12/13 12:52:13;;;;;;;49.85;24.95;;;2.50;99.90;;;;;;5014813;28;20048;-61
2022/12/13 12:55:01;;;;;;;47.42;25.73;;;2.50;99.90;;;;;;4983916;28;20053;-62
2022/12/13 12:57:55;;;;;;;49.83;23.80;;;2.60;99.90;;;;;;4869845;29;20109;-62
2022/12/13 13:00:53;;;;;;;48.45;25.02;;;2.80;99.90;;;;;;5175537;27;20125;-61
2022/12/13 13:03:27;;;;;;;48.88;24.45;;;2.80;99.90;;;;;;5135547;27;20393;-62
2022/12/13 13:06:11;;;;;;;44.67;23.73;;;2.90;99.90;;;;;;5122497;27;20046;-61
2022/12/13 13:08:48;;;;;;;45.33;25.05;;;2.80;99.90;;;;;;5111515;27;20518;-63
2022/12/13 13:11:15;;;;;;;51.75;25.80;;;2.40;99.90;;;;;;5074316;28;20044;-61
2022/12/13 13:13:59;;;;;;;49.63;25.35;;;2.40;99.90;;;;;;5057340;28;20075;-62
2022/12/13 13:16:36;;;;;;;46.75;24.17;;;2.40;99.90;;;;;;4981368;28;20441;-62
2022/12/13 13:19:04;;;;;;;49.47;24.55;;;2.50;99.90;;;;;;4910823;29;20444;-61
2022/12/13 13:21:55;;;;;;;48.92;25.50;;;2.40;99.90;;;;;;4913722;29;20048;-61
2022/12/13 13:28:20;;;;;;;50.28;24.50;;;2.40;99.90;;;;;;5194129;27;20129;-62
2022/12/13 13:31:07;;;;;;;54.30;24.45;;;2.00;99.90;;;;;;5152332;27;20586;-62
2022/12/13 13:33:46;;;;;;;45.53;23.73;;;1.60;99.90;;;;;;5143217;27;20057;-62